TimeCDT,TemperatureF,Dew PointF,Humidity,Sea Level PressureIn,VisibilityMPH,Wind Direction,Wind SpeedMPH,Gust SpeedMPH,PrecipitationIn,Events,Conditions,WindDirDegrees,DateUTC
12:53 AM,64.0,59.0,84,29.81,10.0,WNW,9.2,-,N/A,,Clear,290,2013-06-28 05:53:00
1:53 AM,64.0,59.0,84,29.81,10.0,WNW,12.7,-,N/A,,Clear,290,2013-06-28 06:53:00
2:53 AM,63.0,59.0,87,29.81,10.0,WNW,11.5,-,N/A,,Clear,300,2013-06-28 07:53:00
3:53 AM,62.1,57.0,84,29.81,10.0,WNW,12.7,-,N/A,,Clear,300,2013-06-28 08:53:00
4:53 AM,62.1,57.0,84,29.82,10.0,NW,15.0,20.7,N/A,,Scattered Clouds,320,2013-06-28 09:53:00
5:01 AM,62.6,57.2,82,29.83,10.0,NW,12.7,20.7,N/A,,Mostly Cloudy,320,2013-06-28 10:01:00
5:50 AM,62.6,57.2,82,29.83,10.0,NW,13.8,-,N/A,,Scattered Clouds,310,2013-06-28 10:50:00
5:53 AM,62.1,57.0,84,29.81,10.0,NW,16.1,-,N/A,,Scattered Clouds,310,2013-06-28 10:53:00
6:00 AM,62.6,57.2,82,29.83,10.0,NW,13.8,-,N/A,,Mostly Cloudy,310,2013-06-28 11:00:00
6:53 AM,63.0,57.0,81,29.83,10.0,NW,15.0,23.0,N/A,,Overcast,310,2013-06-28 11:53:00
7:53 AM,64.0,57.9,80,29.84,10.0,NW,15.0,24.2,N/A,,Overcast,320,2013-06-28 12:53:00
8:53 AM,64.0,59.0,84,29.85,10.0,NW,15.0,23.0,0.00,,Overcast,310,2013-06-28 13:53:00
9:22 AM,64.4,60.8,88,29.86,10.0,NW,17.3,-,N/A,,Overcast,320,2013-06-28 14:22:00
9:53 AM,64.0,60.1,87,29.86,10.0,NW,15.0,-,N/A,,Overcast,310,2013-06-28 14:53:00
10:40 AM,64.4,60.8,88,29.86,10.0,NW,16.1,25.3,0.00,,Overcast,320,2013-06-28 15:40:00
10:53 AM,64.9,61.0,87,29.86,10.0,NW,16.1,23.0,0.00,,Overcast,310,2013-06-28 15:53:00
11:53 AM,64.9,61.0,87,29.88,9.0,NW,11.5,19.6,0.00,Rain,Light Rain,320,2013-06-28 16:53:00
12:39 PM,69.8,60.8,73,29.88,10.0,NW,17.3,24.2,0.00,,Mostly Cloudy,320,2013-06-28 17:39:00
12:53 PM,69.1,60.1,73,29.87,10.0,NW,18.4,23.0,0.00,,Mostly Cloudy,320,2013-06-28 17:53:00
1:31 PM,73.4,60.8,65,29.87,10.0,NW,16.1,25.3,N/A,,Mostly Cloudy,310,2013-06-28 18:31:00
1:53 PM,73.0,59.0,61,29.85,10.0,NW,19.6,28.8,N/A,,Scattered Clouds,320,2013-06-28 18:53:00
2:53 PM,73.0,57.9,59,29.85,10.0,NNW,16.1,25.3,N/A,,Overcast,330,2013-06-28 19:53:00
3:53 PM,75.0,59.0,57,29.85,10.0,North,15.0,23.0,N/A,,Overcast,350,2013-06-28 20:53:00
4:53 PM,68.0,63.0,84,29.86,7.0,NNE,12.7,20.7,0.01,Rain,Light Rain,30,2013-06-28 21:53:00
5:08 PM,66.2,62.6,88,29.87,2.5,NNW,13.8,23.0,0.08,Rain,Heavy Rain,340,2013-06-28 22:08:00
5:19 PM,64.4,62.6,94,29.87,1.2,NNW,10.4,25.3,0.20,Rain,Heavy Rain,340,2013-06-28 22:19:00
5:25 PM,64.4,62.6,94,29.87,3.0,NNW,9.2,-,0.20,Rain,Light Rain,330,2013-06-28 22:25:00
5:53 PM,68.0,62.1,81,29.87,10.0,North,11.5,-,0.20,,Mostly Cloudy,350,2013-06-28 22:53:00
6:53 PM,64.9,62.1,90,29.88,10.0,NNW,9.2,-,0.04,Rain,Light Rain,340,2013-06-28 23:53:00
7:53 PM,69.1,64.0,84,29.88,10.0,North,12.7,-,0.00,,Mostly Cloudy,350,2013-06-29 00:53:00
8:53 PM,64.9,60.1,84,29.88,10.0,NNW,11.5,-,0.00,Rain,Light Rain,340,2013-06-29 01:53:00
9:53 PM,62.1,60.1,93,29.88,10.0,NNW,5.8,-,0.00,,Clear,330,2013-06-29 02:53:00
10:53 PM,63.0,60.1,90,29.89,10.0,NNW,11.5,-,N/A,,Clear,340,2013-06-29 03:53:00
11:53 PM,62.1,60.1,93,29.88,10.0,NNW,8.1,-,N/A,,Partly Cloudy,340,2013-06-29 04:53:00